Time;durP1;ratioP1;P1;durP2;ratioP2;P2;SDS_P1;SDS_P2;PMS_P1;PMS_P2;Temp;Humidity;BMP_temperature;BMP_pressure;BME280_temperature;BME280_humidity;BME280_pressure;Samples;Min_cycle;Max_cycle;Signal;HPM_P1;HPM_P2
2022/05/04 00:02:17;;;;;;;8.80;4.40;;;;;;;;;;5070313;28;20031;-68
2022/05/04 00:04:43;;;;;;;7.60;4.05;;;;;;;;;;5069717;28;20099;-69
2022/05/04 00:07:08;;;;;;;6.03;3.80;;;;;;;;;;5069660;28;20503;-68
2022/05/04 00:09:33;;;;;;;6.30;3.70;;;;;;;;;;5069896;28;20111;-68
2022/05/04 00:11:59;;;;;;;4.97;3.45;;;;;;;;;;5070009;28;20029;-67
2022/05/04 00:14:25;;;;;;;5.95;3.67;;;;;;;;;;5069895;28;20024;-67
2022/05/04 00:16:52;;;;;;;5.05;3.60;;;;;;;;;;5069728;28;20464;-67
2022/05/04 00:19:18;;;;;;;5.07;3.42;;;;;;;;;;5069816;28;20033;-67
2022/05/04 00:21:43;;;;;;;5.95;3.60;;;;;;;;;;5069605;28;20090;-68
2022/05/04 00:24:09;;;;;;;5.78;3.47;;;;;;;;;;5069948;28;20029;-67
2022/05/04 00:26:34;;;;;;;6.88;4.20;;;;;;;;;;5069442;28;20492;-67
2022/05/04 00:29:00;;;;;;;6.68;4.60;;;;;;;;;;5069975;28;20393;-66
2022/05/04 00:31:25;;;;;;;7.95;4.30;;;;;;;;;;5069919;28;20449;-66
2022/05/04 00:33:50;;;;;;;9.05;4.50;;;;;;;;;;5069766;28;20037;-67
2022/05/04 00:36:16;;;;;;;7.15;4.30;;;;;;;;;;5069324;28;20028;-66
2022/05/04 00:38:41;;;;;;;8.27;4.95;;;;;;;;;;5069630;28;20048;-67
2022/05/04 00:41:07;;;;;;;7.40;4.88;;;;;;;;;;5069161;28;20045;-67
2022/05/04 00:43:32;;;;;;;7.93;4.63;;;;;;;;;;5069749;28;20044;-67
2022/05/04 00:45:58;;;;;;;6.72;4.43;;;;;;;;;;5069339;28;20020;-67
2022/05/04 00:48:23;;;;;;;6.07;4.50;;;;;;;;;;5069742;28;20377;-67
2022/05/04 00:50:50;;;;;;;6.57;3.90;;;;;;;;;;5069388;28;20033;-68
2022/05/04 00:53:18;;;;;;;7.03;4.25;;;;;;;;;;5069975;28;20159;-70
2022/05/04 00:55:45;;;;;;;5.97;3.85;;;;;;;;;;5069336;28;20105;-67
2022/05/04 01:00:56;;;;;;;6.15;3.50;;;;;;;;;;5069517;28;20098;-68
2022/05/04 01:03:21;;;;;;;6.88;4.10;;;;;;;;;;5069650;28;20047;-68
2022/05/04 01:05:47;;;;;;;4.75;3.33;;;;;;;;;;5069585;28;20017;-68
2022/05/04 01:08:12;;;;;;;4.22;3.05;;;;;;;;;;5069335;28;20045;-68
2022/05/04 01:10:38;;;;;;;6.40;3.30;;;;;;;;;;5069430;28;20035;-68
2022/05/04 01:13:03;;;;;;;5.10;3.40;;;;;;;;;;5069220;28;20075;-68
2022/05/04 01:15:29;;;;;;;4.53;3.20;;;;;;;;;;5072633;28;20032;-67
2022/05/04 01:17:54;;;;;;;6.72;3.25;;;;;;;;;;5072995;28;20026;-68
2022/05/04 01:20:20;;;;;;;5.40;3.10;;;;;;;;;;5073026;28;20093;-68
2022/05/04 01:22:46;;;;;;;5.07;3.08;;;;;;;;;;5072953;28;20059;-67
2022/05/04 01:25:12;;;;;;;6.10;3.15;;;;;;;;;;5073004;28;20071;-69
2022/05/04 01:27:37;;;;;;;4.15;2.90;;;;;;;;;;5073006;28;20032;-67
2022/05/04 01:30:04;;;;;;;6.38;3.17;;;;;;;;;;5054617;28;20504;-67
2022/05/04 01:32:30;;;;;;;4.72;3.33;;;;;;;;;;5072706;28;20066;-67
2022/05/04 01:34:55;;;;;;;4.40;3.00;;;;;;;;;;5072787;28;20484;-67
2022/05/04 01:37:21;;;;;;;6.35;3.17;;;;;;;;;;5072564;28;20028;-68
2022/05/04 01:39:46;;;;;;;7.00;3.03;;;;;;;;;;5072824;28;20028;-67
2022/05/04 01:42:16;;;;;;;5.32;3.17;;;;;;;;;;5072303;28;20080;-67
2022/05/04 01:44:44;;;;;;;4.53;3.20;;;;;;;;;;5072580;28;20077;-68
2022/05/04 01:47:10;;;;;;;6.40;3.30;;;;;;;;;;5072234;28;20325;-67
2022/05/04 01:49:36;;;;;;;6.40;3.22;;;;;;;;;;5072528;28;20536;-66
2022/05/04 01:52:02;;;;;;;5.35;3.10;;;;;;;;;;5072291;28;20016;-67
2022/05/04 01:54:28;;;;;;;5.45;3.10;;;;;;;;;;5072666;28;20021;-67
2022/05/04 01:56:54;;;;;;;5.00;3.10;;;;;;;;;;5072158;28;20024;-66
2022/05/04 01:59:19;;;;;;;7.15;3.15;;;;;;;;;;5072395;28;20028;-66
2022/05/04 02:01:45;;;;;;;5.10;3.08;;;;;;;;;;5072380;28;20021;-66
2022/05/04 02:04:10;;;;;;;6.80;2.97;;;;;;;;;;5072376;28;20029;-66
2022/05/04 02:06:37;;;;;;;4.82;3.10;;;;;;;;;;5072077;28;20024;-67
2022/05/04 02:09:04;;;;;;;4.80;3.28;;;;;;;;;;5072046;28;20039;-68
2022/05/04 02:11:32;;;;;;;4.55;3.10;;;;;;;;;;5071875;28;20062;-67
2022/05/04 02:14:01;;;;;;;5.97;3.35;;;;;;;;;;5072198;28;20538;-68
2022/05/04 02:16:26;;;;;;;6.53;3.10;;;;;;;;;;5071854;28;20048;-68
2022/05/04 02:18:52;;;;;;;6.05;3.70;;;;;;;;;;5072060;28;20117;-67
2022/05/04 02:21:17;;;;;;;5.43;3.30;;;;;;;;;;5071841;28;20050;-67
2022/05/04 02:23:43;;;;;;;4.88;3.10;;;;;;;;;;5071820;28;20074;-67
2022/05/04 02:26:08;;;;;;;4.38;3.30;;;;;;;;;;5071587;28;20028;-68
2022/05/04 02:28:34;;;;;;;5.00;3.13;;;;;;;;;;5071633;28;20056;-67
2022/05/04 02:30:59;;;;;;;5.50;3.10;;;;;;;;;;5071642;28;20029;-67
2022/05/04 02:33:25;;;;;;;4.60;3.20;;;;;;;;;;5071672;28;20377;-67
2022/05/04 02:38:35;;;;;;;4.35;3.20;;;;;;;;;;5071822;28;20094;-67
2022/05/04 02:41:00;;;;;;;5.88;3.33;;;;;;;;;;5071104;28;20415;-68
2022/05/04 02:43:28;;;;;;;5.55;3.45;;;;;;;;;;5071573;28;20052;-67
2022/05/04 02:45:54;;;;;;;9.05;3.17;;;;;;;;;;5071356;28;20550;-66
2022/05/04 02:48:19;;;;;;;4.88;3.17;;;;;;;;;;5071182;28;20020;-67
2022/05/04 02:50:44;;;;;;;5.28;2.90;;;;;;;;;;5071679;28;20031;-66
2022/05/04 02:53:10;;;;;;;4.80;3.08;;;;;;;;;;5071286;28;20024;-67
2022/05/04 02:55:35;;;;;;;4.85;2.92;;;;;;;;;;5071370;28;20029;-67
2022/05/04 02:58:01;;;;;;;5.80;3.60;;;;;;;;;;5070727;28;20025;-67
2022/05/04 03:00:27;;;;;;;4.82;3.33;;;;;;;;;;5071342;28;20182;-68
2022/05/04 03:02:54;;;;;;;5.47;3.50;;;;;;;;;;5071025;28;20466;-68
2022/05/04 03:05:20;;;;;;;6.30;3.20;;;;;;;;;;5071275;28;20158;-68
2022/05/04 03:07:46;;;;;;;6.50;3.30;;;;;;;;;;5071251;28;20108;-67
2022/05/04 03:10:13;;;;;;;5.75;3.30;;;;;;;;;;5071165;28;20031;-67
2022/05/04 03:12:39;;;;;;;5.10;3.28;;;;;;;;;;5070752;28;20025;-68
2022/05/04 03:15:05;;;;;;;4.80;3.20;;;;;;;;;;5070766;28;20559;-68
2022/05/04 03:17:31;;;;;;;5.35;3.28;;;;;;;;;;5070369;28;20056;-67
2022/05/04 03:19:58;;;;;;;4.82;2.95;;;;;;;;;;5070797;28;20067;-68
2022/05/04 03:22:24;;;;;;;4.85;3.38;;;;;;;;;;5070593;28;20114;-67
2022/05/04 03:24:49;;;;;;;5.47;2.90;;;;;;;;;;5070688;28;20483;-68
2022/05/04 03:27:15;;;;;;;4.53;3.05;;;;;;;;;;5070817;28;20032;-68
2022/05/04 03:29:40;;;;;;;5.43;3.42;;;;;;;;;;5070471;28;20035;-67
2022/05/04 03:32:06;;;;;;;5.07;3.50;;;;;;;;;;5070091;28;20508;-67
2022/05/04 03:34:31;;;;;;;4.55;3.20;;;;;;;;;;5070438;28;20107;-68
2022/05/04 03:37:00;;;;;;;4.85;3.20;;;;;;;;;;5069805;28;20103;-66
2022/05/04 03:39:29;;;;;;;5.25;3.35;;;;;;;;;;5070870;28;20033;-68
2022/05/04 03:41:55;;;;;;;7.28;3.63;;;;;;;;;;5070021;28;20048;-68
2022/05/04 03:44:20;;;;;;;5.35;3.30;;;;;;;;;;5070144;28;20028;-68
2022/05/04 03:46:50;;;;;;;6.13;3.17;;;;;;;;;;5070109;28;20032;-66
2022/05/04 03:49:17;;;;;;;7.47;3.30;;;;;;;;;;5069821;28;20043;-68
2022/05/04 03:51:43;;;;;;;4.90;3.17;;;;;;;;;;5070549;28;20258;-68
2022/05/04 03:54:09;;;;;;;5.57;3.50;;;;;;;;;;5069977;28;20098;-69
2022/05/04 03:56:35;;;;;;;4.57;3.17;;;;;;;;;;5070343;28;20040;-68
2022/05/04 03:59:03;;;;;;;6.53;3.17;;;;;;;;;;5069571;28;20020;-67
2022/05/04 04:01:28;;;;;;;5.60;3.35;;;;;;;;;;5069968;28;20028;-69
2022/05/04 04:03:53;;;;;;;6.68;3.22;;;;;;;;;;5069955;28;20036;-68
2022/05/04 04:06:19;;;;;;;5.20;3.15;;;;;;;;;;5069941;28;20387;-68
2022/05/04 04:08:44;;;;;;;7.78;3.30;;;;;;;;;;5069503;28;20490;-68
2022/05/04 04:11:10;;;;;;;4.28;3.25;;;;;;;;;;5070260;28;20036;-68
2022/05/04 04:13:37;;;;;;;5.85;3.30;;;;;;;;;;5070020;28;20032;-68
2022/05/04 04:16:03;;;;;;;6.60;3.22;;;;;;;;;;5070277;28;20120;-68
2022/05/04 04:18:28;;;;;;;5.55;3.55;;;;;;;;;;5069656;28;20111;-68
2022/05/04 04:23:39;;;;;;;6.90;3.30;;;;;;;;;;5069783;28;20039;-67
2022/05/04 04:26:05;;;;;;;6.25;3.20;;;;;;;;;;5069789;28;20035;-67
2022/05/04 04:28:33;;;;;;;5.05;3.10;;;;;;;;;;5069417;28;20472;-68
2022/05/04 04:30:59;;;;;;;5.95;2.95;;;;;;;;;;5069698;28;20094;-67
2022/05/04 04:33:26;;;;;;;5.35;3.28;;;;;;;;;;5069683;28;20480;-67
2022/05/04 04:35:59;;;;;;;7.63;3.30;;;;;;;;;;5069895;28;20078;-67
2022/05/04 04:38:28;;;;;;;5.90;3.30;;;;;;;;;;5069307;28;20490;-67
2022/05/04 04:40:53;;;;;;;4.78;3.17;;;;;;;;;;5069597;28;20033;-67
2022/05/04 04:43:19;;;;;;;7.53;3.40;;;;;;;;;;5069471;28;20384;-67
2022/05/04 04:45:48;;;;;;;5.85;3.10;;;;;;;;;;5069727;28;20028;-67
2022/05/04 04:48:16;;;;;;;7.50;3.63;;;;;;;;;;5069592;28;20029;-68
2022/05/04 04:50:42;;;;;;;7.13;3.28;;;;;;;;;;5073907;28;20077;-68
2022/05/04 04:53:07;;;;;;;6.43;3.15;;;;;;;;;;5073572;28;20024;-68
2022/05/04 04:55:32;;;;;;;6.28;3.53;;;;;;;;;;5073680;28;20020;-68
2022/05/04 04:57:58;;;;;;;11.73;3.50;;;;;;;;;;5073323;28;20025;-69
2022/05/04 05:00:24;;;;;;;7.78;3.47;;;;;;;;;;5073146;28;20028;-69
2022/05/04 05:02:50;;;;;;;7.57;3.30;;;;;;;;;;5073636;28;20035;-68
2022/05/04 05:05:15;;;;;;;7.47;3.40;;;;;;;;;;5073704;28;20111;-67
2022/05/04 05:07:41;;;;;;;7.88;3.28;;;;;;;;;;5073519;28;20387;-67
2022/05/04 05:10:06;;;;;;;7.07;3.50;;;;;;;;;;5073110;28;20035;-67
2022/05/04 05:12:32;;;;;;;6.85;3.30;;;;;;;;;;5073378;28;20468;-67
2022/05/04 05:17:43;;;;;;;4.70;3.15;;;;;;;;;;5073454;28;20314;-67
2022/05/04 05:20:09;;;;;;;5.80;3.40;;;;;;;;;;5072661;28;20272;-67
2022/05/04 05:22:35;;;;;;;6.10;3.60;;;;;;;;;;5073065;28;20032;-67
2022/05/04 05:25:00;;;;;;;6.15;3.55;;;;;;;;;;5072791;28;20025;-67
2022/05/04 05:27:29;;;;;;;7.53;3.75;;;;;;;;;;5073069;28;20110;-67
2022/05/04 05:29:55;;;;;;;6.55;3.42;;;;;;;;;;5072436;28;20028;-67
2022/05/04 05:32:20;;;;;;;8.02;3.70;;;;;;;;;;5072778;28;20085;-68
2022/05/04 05:34:45;;;;;;;8.00;3.50;;;;;;;;;;5072771;28;20020;-68
2022/05/04 05:37:11;;;;;;;7.50;3.53;;;;;;;;;;5072881;28;20066;-68
2022/05/04 05:39:36;;;;;;;6.32;3.70;;;;;;;;;;5072373;28;20025;-68
2022/05/04 05:42:02;;;;;;;6.65;3.40;;;;;;;;;;5071858;28;20052;-68
2022/05/04 05:44:27;;;;;;;6.80;3.25;;;;;;;;;;5071182;28;20025;-67
2022/05/04 05:46:52;;;;;;;7.75;3.50;;;;;;;;;;5071775;28;20024;-67
2022/05/04 05:49:18;;;;;;;5.32;3.38;;;;;;;;;;5070969;28;20078;-67
2022/05/04 05:51:43;;;;;;;8.30;3.28;;;;;;;;;;5071319;28;20033;-67
2022/05/04 05:54:09;;;;;;;11.27;3.40;;;;;;;;;;5071471;28;20428;-68
2022/05/04 05:56:34;;;;;;;8.75;3.38;;;;;;;;;;5071469;28;20032;-67
2022/05/04 05:59:00;;;;;;;5.93;3.67;;;;;;;;;;5070458;28;20058;-68
2022/05/04 06:01:25;;;;;;;7.90;4.10;;;;;;;;;;5070948;28;20036;-67
2022/05/04 06:03:52;;;;;;;6.55;3.05;;;;;;;;;;5071012;28;20017;-69
2022/05/04 06:06:18;;;;;;;7.03;3.03;;;;;;;;;;5071044;28;20025;-68
2022/05/04 06:08:43;;;;;;;9.18;3.15;;;;;;;;;;5070557;28;20158;-68
2022/05/04 06:11:09;;;;;;;5.07;2.90;;;;;;;;;;5070936;28;20021;-67
2022/05/04 06:13:34;;;;;;;7.15;3.38;;;;;;;;;;5070978;28;20024;-67
2022/05/04 06:16:00;;;;;;;7.57;3.10;;;;;;;;;;5070757;28;20143;-68
2022/05/04 06:18:25;;;;;;;7.97;3.05;;;;;;;;;;5071074;28;20020;-67
2022/05/04 06:20:50;;;;;;;11.27;3.60;;;;;;;;;;5070936;28;20027;-67
2022/05/04 06:23:16;;;;;;;5.00;3.33;;;;;;;;;;5052885;28;20050;-68
2022/05/04 06:25:42;;;;;;;4.47;2.63;;;;;;;;;;5070486;28;20500;-67
2022/05/04 06:28:08;;;;;;;10.55;3.58;;;;;;;;;;5070666;28;20021;-66
2022/05/04 06:36:01;;;;;;;9.25;3.25;;;;;;;;;;5070935;28;20097;-68
2022/05/04 06:38:27;;;;;;;4.60;3.00;;;;;;;;;;5070727;28;20036;-67
2022/05/04 06:40:53;;;;;;;8.40;3.20;;;;;;;;;;5029805;28;1141998;-67
2022/05/04 06:43:19;;;;;;;5.18;2.58;;;;;;;;;;5071389;28;20043;-67
2022/05/04 06:45:44;;;;;;;6.75;2.70;;;;;;;;;;5071033;28;20036;-67
2022/05/04 06:48:10;;;;;;;5.03;2.90;;;;;;;;;;5071740;28;20024;-67
2022/05/04 06:50:35;;;;;;;7.68;3.00;;;;;;;;;;5071293;28;20522;-68
2022/05/04 06:53:01;;;;;;;7.30;3.13;;;;;;;;;;5071494;28;20020;-67
2022/05/04 06:55:26;;;;;;;8.32;3.50;;;;;;;;;;5071297;28;20029;-66
2022/05/04 06:57:51;;;;;;;7.30;3.78;;;;;;;;;;5071426;28;20029;-66
2022/05/04 07:00:17;;;;;;;6.53;3.20;;;;;;;;;;5070571;28;20020;-67
2022/05/04 07:02:43;;;;;;;8.23;2.95;;;;;;;;;;5071699;28;20032;-66
2022/05/04 07:05:08;;;;;;;7.50;3.30;;;;;;;;;;5071061;28;20021;-66
2022/05/04 07:07:34;;;;;;;4.53;2.90;;;;;;;;;;5071151;28;20082;-67
2022/05/04 07:10:00;;;;;;;6.00;3.08;;;;;;;;;;5070652;28;20400;-67
2022/05/04 07:12:26;;;;;;;6.32;2.95;;;;;;;;;;5070364;28;20028;-68
2022/05/04 07:14:53;;;;;;;5.20;2.78;;;;;;;;;;5070583;28;20028;-68
2022/05/04 07:17:19;;;;;;;5.32;2.90;;;;;;;;;;5071202;28;20482;-68
2022/05/04 07:19:46;;;;;;;5.50;2.80;;;;;;;;;;5070931;28;20033;-67
2022/05/04 07:22:12;;;;;;;6.50;2.92;;;;;;;;;;5070846;28;20480;-67
2022/05/04 07:24:38;;;;;;;5.22;3.20;;;;;;;;;;5070631;28;20035;-67
2022/05/04 07:27:03;;;;;;;4.70;2.80;;;;;;;;;;5071008;28;20017;-67
2022/05/04 07:29:29;;;;;;;4.53;2.78;;;;;;;;;;5070659;28;20032;-67
2022/05/04 07:31:54;;;;;;;8.13;3.10;;;;;;;;;;5070529;28;20028;-67
2022/05/04 07:34:19;;;;;;;7.90;3.00;;;;;;;;;;5070545;28;20024;-67
2022/05/04 07:36:45;;;;;;;5.65;2.70;;;;;;;;;;5070283;28;20016;-67
2022/05/04 07:44:40;;;;;;;8.52;3.13;;;;;;;;;;5070605;28;20101;-67
2022/05/04 07:47:06;;;;;;;4.68;2.83;;;;;;;;;;5070507;28;20032;-67
2022/05/04 07:49:32;;;;;;;4.25;2.95;;;;;;;;;;5070230;28;20488;-67
2022/05/04 07:51:57;;;;;;;5.30;3.05;;;;;;;;;;5070287;28;20035;-69
2022/05/04 07:54:23;;;;;;;6.20;3.30;;;;;;;;;;5070412;28;20024;-68
2022/05/04 07:56:49;;;;;;;5.95;2.90;;;;;;;;;;5070195;28;20252;-67
2022/05/04 07:59:14;;;;;;;8.65;3.33;;;;;;;;;;5070156;28;20066;-67
2022/05/04 08:04:24;;;;;;;6.70;3.08;;;;;;;;;;5070622;28;20082;-67
2022/05/04 08:06:49;;;;;;;9.27;3.03;;;;;;;;;;5069966;28;20029;-67
2022/05/04 08:09:16;;;;;;;4.75;2.80;;;;;;;;;;5070122;28;20063;-68
2022/05/04 08:11:43;;;;;;;4.13;2.53;;;;;;;;;;5070066;28;20021;-67
2022/05/04 08:14:09;;;;;;;5.53;2.70;;;;;;;;;;5070307;28;20033;-66
2022/05/04 08:16:36;;;;;;;6.75;2.85;;;;;;;;;;5069851;28;20038;-67
2022/05/04 08:19:03;;;;;;;7.22;2.75;;;;;;;;;;5070379;28;20028;-68
2022/05/04 08:21:28;;;;;;;5.95;2.90;;;;;;;;;;5069734;28;20062;-67
2022/05/04 08:23:54;;;;;;;4.13;2.33;;;;;;;;;;5069900;28;20024;-68
2022/05/04 08:26:19;;;;;;;6.68;2.67;;;;;;;;;;5069705;28;20028;-68
2022/05/04 08:28:46;;;;;;;4.60;2.42;;;;;;;;;;5069925;28;20028;-68
2022/05/04 08:31:11;;;;;;;4.95;2.58;;;;;;;;;;5069388;28;20029;-69
2022/05/04 08:33:37;;;;;;;4.72;2.50;;;;;;;;;;5069927;28;20377;-67
2022/05/04 08:36:02;;;;;;;4.25;2.40;;;;;;;;;;5069814;28;20407;-68
2022/05/04 08:38:28;;;;;;;4.10;2.35;;;;;;;;;;5069988;28;20282;-68
2022/05/04 08:40:55;;;;;;;4.72;2.60;;;;;;;;;;5069109;28;20036;-68
2022/05/04 08:43:24;;;;;;;3.75;2.60;;;;;;;;;;5069732;28;20043;-68
2022/05/04 08:45:53;;;;;;;5.55;2.45;;;;;;;;;;5069489;28;20033;-68
2022/05/04 08:48:21;;;;;;;6.13;2.70;;;;;;;;;;5069826;28;20028;-67
2022/05/04 08:50:46;;;;;;;4.65;2.60;;;;;;;;;;5069386;28;20056;-68
2022/05/04 08:53:13;;;;;;;4.57;2.40;;;;;;;;;;5069895;28;20056;-68
2022/05/04 08:55:38;;;;;;;4.95;2.58;;;;;;;;;;5069509;28;20546;-68
2022/05/04 08:58:08;;;;;;;3.85;2.50;;;;;;;;;;5069631;28;20024;-67
2022/05/04 09:00:33;;;;;;;4.97;2.60;;;;;;;;;;5069162;28;20116;-68
2022/05/04 09:02:59;;;;;;;4.25;2.40;;;;;;;;;;5069469;28;20170;-68
2022/05/04 09:05:27;;;;;;;3.42;2.30;;;;;;;;;;5069513;28;20024;-66
2022/05/04 09:07:55;;;;;;;5.05;2.50;;;;;;;;;;5051405;28;20064;-67
2022/05/04 09:10:22;;;;;;;6.45;2.35;;;;;;;;;;5069853;28;20404;-68
2022/05/04 09:12:51;;;;;;;9.43;2.90;;;;;;;;;;5069223;28;20095;-68
2022/05/04 09:15:27;;;;;;;5.13;2.67;;;;;;;;;;5069466;28;20036;-68
2022/05/04 09:18:00;;;;;;;6.55;2.60;;;;;;;;;;5069252;28;20025;-68
2022/05/04 09:20:49;;;;;;;5.43;2.78;;;;;;;;;;5068814;28;20032;-68
2022/05/04 09:23:25;;;;;;;10.18;2.75;;;;;;;;;;5069371;28;20025;-67
2022/05/04 09:25:58;;;;;;;7.65;3.30;;;;;;;;;;5069128;28;20017;-68
2022/05/04 09:28:26;;;;;;;6.47;3.05;;;;;;;;;;5069652;28;20039;-67
2022/05/04 09:30:56;;;;;;;8.88;3.22;;;;;;;;;;5068840;28;20082;-67
2022/05/04 09:33:28;;;;;;;5.68;2.97;;;;;;;;;;5068912;28;20024;-67
2022/05/04 09:35:54;;;;;;;6.53;3.10;;;;;;;;;;5071519;28;20032;-67
2022/05/04 09:46:54;;;;;;;4.43;3.20;;;;;;;;;;5072881;28;20143;-68
2022/05/04 09:49:30;;;;;;;7.18;3.63;;;;;;;;;;5072715;28;20111;-69
2022/05/04 09:51:56;;;;;;;5.53;3.25;;;;;;;;;;5072056;28;20131;-68
2022/05/04 09:54:27;;;;;;;5.95;3.42;;;;;;;;;;5072583;28;20115;-67
2022/05/04 09:57:03;;;;;;;7.38;3.50;;;;;;;;;;5072546;28;20044;-67
2022/05/04 09:59:39;;;;;;;7.88;3.10;;;;;;;;;;5072953;28;20020;-68
2022/05/04 10:02:09;;;;;;;7.68;3.30;;;;;;;;;;5072177;28;20078;-68
2022/05/04 10:04:36;;;;;;;6.43;3.10;;;;;;;;;;5072662;28;20384;-68
2022/05/04 10:07:03;;;;;;;7.18;3.40;;;;;;;;;;5071988;28;20070;-67
2022/05/04 10:09:29;;;;;;;5.78;3.15;;;;;;;;;;5072688;28;20025;-68
2022/05/04 10:11:59;;;;;;;6.85;3.10;;;;;;;;;;5071703;28;20029;-67
2022/05/04 10:14:28;;;;;;;4.95;2.92;;;;;;;;;;5072225;28;20086;-67
2022/05/04 10:16:57;;;;;;;6.70;3.13;;;;;;;;;;5072004;28;20463;-67
2022/05/04 10:19:38;;;;;;;5.50;2.97;;;;;;;;;;5072410;28;20025;-67
2022/05/04 10:22:08;;;;;;;3.83;2.40;;;;;;;;;;5071963;28;20483;-67
2022/05/04 10:24:35;;;;;;;7.43;3.00;;;;;;;;;;5072159;28;20047;-67
2022/05/04 10:27:21;;;;;;;5.60;2.53;;;;;;;;;;5071776;28;20066;-69
2022/05/04 10:32:38;;;;;;;5.00;2.17;;;;;;;;;;5071959;28;20063;-68
2022/05/04 10:35:30;;;;;;;6.95;2.80;;;;;;;;;;5071886;28;20024;-68
2022/05/04 10:37:57;;;;;;;4.53;2.58;;;;;;;;;;5071539;28;20395;-68
2022/05/04 10:40:26;;;;;;;5.40;3.05;;;;;;;;;;5071654;28;20497;-67
2022/05/04 10:43:00;;;;;;;6.78;2.80;;;;;;;;;;5071255;28;20424;-68
2022/05/04 10:45:34;;;;;;;4.40;2.85;;;;;;;;;;5071561;28;20028;-68
2022/05/04 10:48:18;;;;;;;9.05;3.20;;;;;;;;;;5070840;28;20515;-68
2022/05/04 10:50:52;;;;;;;4.97;3.28;;;;;;;;;;5053542;28;20376;-67
2022/05/04 10:53:35;;;;;;;5.47;3.40;;;;;;;;;;5071722;28;20024;-66
2022/05/04 10:56:03;;;;;;;5.90;3.58;;;;;;;;;;5071460;28;20392;-67
2022/05/04 10:58:31;;;;;;;5.95;3.63;;;;;;;;;;5071243;28;20049;-67
2022/05/04 11:01:10;;;;;;;5.28;3.15;;;;;;;;;;5070670;28;20028;-67
2022/05/04 11:03:38;;;;;;;8.82;4.70;;;;;;;;;;5070860;28;20052;-68
2022/05/04 11:06:09;;;;;;;7.25;4.22;;;;;;;;;;5070979;28;20020;-67
2022/05/04 11:08:36;;;;;;;6.40;4.50;;;;;;;;;;5071053;28;20169;-67
2022/05/04 11:11:03;;;;;;;7.22;4.63;;;;;;;;;;5070912;28;20086;-67
2022/05/04 11:13:32;;;;;;;5.40;3.80;;;;;;;;;;5070684;28;20499;-68
2022/05/04 11:16:02;;;;;;;6.70;3.90;;;;;;;;;;5070876;28;20082;-69
2022/05/04 11:18:28;;;;;;;7.53;4.10;;;;;;;;;;5070671;28;20526;-68
2022/05/04 11:20:54;;;;;;;5.65;3.88;;;;;;;;;;5070313;28;20028;-68
2022/05/04 11:23:25;;;;;;;8.23;3.90;;;;;;;;;;5070640;28;20472;-68
2022/05/04 11:25:52;;;;;;;6.65;3.70;;;;;;;;;;5070747;28;20067;-68
2022/05/04 11:28:26;;;;;;;6.95;3.75;;;;;;;;;;5070408;28;20024;-68
2022/05/04 11:30:52;;;;;;;5.85;4.10;;;;;;;;;;5070249;28;20032;-68
2022/05/04 11:33:18;;;;;;;7.25;3.58;;;;;;;;;;5070201;28;20033;-68
2022/05/04 11:35:45;;;;;;;4.60;3.13;;;;;;;;;;5070759;28;20395;-67
2022/05/04 11:38:23;;;;;;;4.93;3.08;;;;;;;;;;5070906;28;20028;-67
2022/05/04 11:40:50;;;;;;;8.27;3.40;;;;;;;;;;5070072;28;20510;-68
2022/05/04 11:43:36;;;;;;;5.47;3.50;;;;;;;;;;5070355;28;20021;-68
2022/05/04 11:46:11;;;;;;;6.40;3.17;;;;;;;;;;5069734;28;20048;-68
2022/05/04 11:48:42;;;;;;;7.53;3.53;;;;;;;;;;5070371;28;20028;-68
2022/05/04 11:51:13;;;;;;;5.47;2.95;;;;;;;;;;5070063;28;20104;-67
2022/05/04 11:53:39;;;;;;;6.47;3.20;;;;;;;;;;5070515;28;20020;-67
2022/05/04 11:56:06;;;;;;;4.50;3.22;;;;;;;;;;5070472;28;20032;-67
2022/05/04 11:58:33;;;;;;;6.82;3.60;;;;;;;;;;5069838;28;20040;-68
2022/05/04 12:01:00;;;;;;;4.55;3.45;;;;;;;;;;5070440;28;20029;-67
2022/05/04 12:03:27;;;;;;;5.22;3.25;;;;;;;;;;5070050;28;20175;-67
2022/05/04 12:05:54;;;;;;;6.28;3.15;;;;;;;;;;5070301;28;20025;-67
2022/05/04 12:08:21;;;;;;;6.40;2.95;;;;;;;;;;5070114;28;20047;-67
2022/05/04 12:10:51;;;;;;;8.38;2.90;;;;;;;;;;5070018;28;20056;-67
2022/05/04 12:13:23;;;;;;;6.30;3.13;;;;;;;;;;5069912;28;20107;-67
2022/05/04 12:15:50;;;;;;;6.07;2.95;;;;;;;;;;5052049;28;20425;-67
2022/05/04 12:18:16;;;;;;;4.25;3.13;;;;;;;;;;5069831;28;20024;-68
2022/05/04 12:20:46;;;;;;;7.88;3.30;;;;;;;;;;5070171;28;20120;-67
2022/05/04 12:23:12;;;;;;;5.95;3.00;;;;;;;;;;5069827;28;20062;-68
2022/05/04 12:25:39;;;;;;;5.38;3.60;;;;;;;;;;5070097;28;20055;-67
2022/05/04 12:28:05;;;;;;;6.28;3.85;;;;;;;;;;5070041;28;20115;-68
2022/05/04 12:33:15;;;;;;;7.97;4.13;;;;;;;;;;5070100;28;20031;-68
2022/05/04 12:35:43;;;;;;;7.95;4.15;;;;;;;;;;5070000;28;20086;-69
2022/05/04 12:38:11;;;;;;;5.60;4.15;;;;;;;;;;5069757;28;20495;-68
2022/05/04 12:40:37;;;;;;;6.90;4.25;;;;;;;;;;5070095;28;20650;-68
2022/05/04 12:43:04;;;;;;;8.35;4.57;;;;;;;;;;5069152;28;20373;-67
2022/05/04 12:45:30;;;;;;;8.20;4.63;;;;;;;;;;5069599;28;20025;-67
2022/05/04 12:47:57;;;;;;;8.13;4.65;;;;;;;;;;5069540;28;20032;-67
2022/05/04 12:50:25;;;;;;;12.82;4.97;;;;;;;;;;5069795;28;20020;-68
2022/05/04 12:52:50;;;;;;;7.72;4.65;;;;;;;;;;5069625;28;20064;-68
2022/05/04 12:55:17;;;;;;;6.43;3.83;;;;;;;;;;5070195;28;20420;-67
2022/05/04 12:57:43;;;;;;;6.88;3.08;;;;;;;;;;5069786;28;20028;-68
2022/05/04 13:00:13;;;;;;;6.82;2.58;;;;;;;;;;5069244;28;20304;-68
2022/05/04 13:02:42;;;;;;;8.55;2.80;;;;;;;;;;5069313;28;20275;-68
2022/05/04 13:05:09;;;;;;;7.28;3.30;;;;;;;;;;5069301;28;20043;-68
2022/05/04 13:07:37;;;;;;;5.65;3.05;;;;;;;;;;5069486;28;20417;-68
2022/05/04 13:10:04;;;;;;;6.22;3.28;;;;;;;;;;5070911;28;20090;-68
2022/05/04 13:12:30;;;;;;;9.25;4.15;;;;;;;;;;5073400;28;20024;-67
2022/05/04 13:14:55;;;;;;;8.63;5.07;;;;;;;;;;5072908;28;20025;-68
2022/05/04 13:17:20;;;;;;;10.10;5.20;;;;;;;;;;5073294;28;20048;-69
2022/05/04 13:19:47;;;;;;;11.57;5.50;;;;;;;;;;5073227;28;20400;-68
2022/05/04 13:22:12;;;;;;;13.05;5.60;;;;;;;;;;5072961;28;20504;-67
2022/05/04 13:24:38;;;;;;;7.90;5.18;;;;;;;;;;5073363;28;20485;-67
2022/05/04 13:27:03;;;;;;;9.18;4.80;;;;;;;;;;5073091;28;20027;-67
2022/05/04 13:29:29;;;;;;;8.45;4.85;;;;;;;;;;5073091;28;20078;-67
2022/05/04 13:31:54;;;;;;;7.72;5.10;;;;;;;;;;5072898;28;20090;-67
2022/05/04 13:34:20;;;;;;;11.70;5.10;;;;;;;;;;5072550;28;20027;-67
2022/05/04 13:36:45;;;;;;;9.88;4.63;;;;;;;;;;5072781;28;20024;-67
2022/05/04 13:39:11;;;;;;;6.78;3.72;;;;;;;;;;5072476;28;20029;-67
2022/05/04 13:41:37;;;;;;;6.07;3.97;;;;;;;;;;5072714;28;20037;-67
2022/05/04 13:44:02;;;;;;;9.20;4.15;;;;;;;;;;5072571;28;20025;-67
2022/05/04 13:46:28;;;;;;;5.03;3.65;;;;;;;;;;5072652;28;20103;-67
2022/05/04 13:48:56;;;;;;;10.15;3.90;;;;;;;;;;5072686;28;20021;-67
2022/05/04 13:54:08;;;;;;;5.57;3.30;;;;;;;;;;5072403;28;20104;-67
2022/05/04 13:56:37;;;;;;;8.80;3.78;;;;;;;;;;5072666;28;20029;-67
2022/05/04 13:59:03;;;;;;;8.02;4.63;;;;;;;;;;5072508;28;20025;-67
2022/05/04 14:01:29;;;;;;;7.93;4.43;;;;;;;;;;5072305;28;20027;-67
2022/05/04 14:03:54;;;;;;;7.28;4.80;;;;;;;;;;5072386;28;20024;-67
2022/05/04 14:06:20;;;;;;;7.70;4.80;;;;;;;;;;5072638;28;20492;-67
2022/05/04 14:08:48;;;;;;;7.93;5.05;;;;;;;;;;5072369;28;20107;-67
2022/05/04 14:11:14;;;;;;;8.73;4.90;;;;;;;;;;5072123;28;20539;-68
2022/05/04 14:13:39;;;;;;;14.63;5.03;;;;;;;;;;5072054;28;20119;-67
2022/05/04 14:16:05;;;;;;;8.25;5.07;;;;;;;;;;5072106;28;20227;-67
2022/05/04 14:18:31;;;;;;;8.45;5.22;;;;;;;;;;5072503;28;20052;-67
2022/05/04 14:20:59;;;;;;;8.70;4.82;;;;;;;;;;5072209;28;20484;-67
2022/05/04 14:23:25;;;;;;;7.10;4.70;;;;;;;;;;5072331;28;20029;-67
2022/05/04 14:25:51;;;;;;;7.95;5.05;;;;;;;;;;5071936;28;20301;-68
2022/05/04 14:28:19;;;;;;;8.77;4.70;;;;;;;;;;5054073;28;20287;-68
2022/05/04 14:30:44;;;;;;;7.60;4.93;;;;;;;;;;5071720;28;20120;-67
2022/05/04 14:33:10;;;;;;;7.28;4.50;;;;;;;;;;5071840;28;20104;-68
2022/05/04 14:35:36;;;;;;;7.93;4.68;;;;;;;;;;5071652;28;20389;-67
2022/05/04 14:38:01;;;;;;;7.50;4.70;;;;;;;;;;5072018;28;20052;-68
2022/05/04 14:40:27;;;;;;;7.30;4.80;;;;;;;;;;5071920;28;20032;-67
2022/05/04 14:42:54;;;;;;;7.95;4.88;;;;;;;;;;5071355;28;20559;-67
2022/05/04 14:45:20;;;;;;;5.78;4.30;;;;;;;;;;5071334;28;20099;-67
2022/05/04 14:47:45;;;;;;;8.27;4.80;;;;;;;;;;5071566;28;20548;-68
2022/05/04 14:50:11;;;;;;;8.07;3.83;;;;;;;;;;5071348;28;20047;-68
2022/05/04 14:52:36;;;;;;;8.02;4.50;;;;;;;;;;5071447;28;20028;-68
2022/05/04 14:55:02;;;;;;;8.68;3.90;;;;;;;;;;5071350;28;20472;-67
2022/05/04 14:57:27;;;;;;;6.65;4.22;;;;;;;;;;5071687;28;20112;-67
2022/05/04 14:59:53;;;;;;;7.75;4.30;;;;;;;;;;5070875;28;20455;-67
2022/05/04 15:02:18;;;;;;;6.20;3.78;;;;;;;;;;5071055;28;20115;-67
2022/05/04 15:05:02;;;;;;;7.20;3.95;;;;;;;;;;5070980;28;20025;-67
2022/05/04 15:07:28;;;;;;;5.60;4.20;;;;;;;;;;5071497;28;20017;-67
2022/05/04 15:09:54;;;;;;;7.28;4.50;;;;;;;;;;5071089;28;20052;-67
2022/05/04 15:12:20;;;;;;;7.20;4.60;;;;;;;;;;5071151;28;20056;-69
2022/05/04 15:14:45;;;;;;;8.95;4.60;;;;;;;;;;5070742;28;20056;-67
2022/05/04 15:17:10;;;;;;;6.60;4.50;;;;;;;;;;5071429;28;20219;-67
2022/05/04 15:19:36;;;;;;;7.95;4.35;;;;;;;;;;5070837;28;20522;-68
2022/05/04 15:22:03;;;;;;;7.72;4.07;;;;;;;;;;5070626;28;20391;-67
2022/05/04 15:24:28;;;;;;;7.90;4.60;;;;;;;;;;5070839;28;20446;-67